Terminal Aerodrome Forecast
Issued by NWS Huntsville, AL

Home | Current Version | Previous Version | Text Only | Print | Product List | Glossary On
Versions: 1 2 3 4 5 6 7 8 9 10 11 12 13 14 15 16
000
FTUS44 KHUN 302320
TAFMSL
TAF
KMSL 302320Z 3100/3124 VRB04KT P6SM FEW050 SCT250
     FM310700 VRB02KT 3SM BR FEW250
      TEMPO 3108/3112 2SM BR BKN020
     FM311200 VRB03KT P6SM SCT030 SCT120
     FM311800 26006KT P6SM SCT050 PROB30 3118/3122 6SM -TSRA
      SCT050CB=

USA.gov is the U.S. government's official web portal to all federal, state and local government web resources and services.